Time;durP1;ratioP1;P1;durP2;ratioP2;P2;SDS_P1;SDS_P2;PMS_P1;PMS_P2;Temp;Humidity;BMP_temperature;BMP_pressure;BME280_temperature;BME280_humidity;BME280_pressure;Samples;Min_cycle;Max_cycle;Signal;HPM_P1;HPM_P2
2022/06/10 00:01:03;;;;;;;1.48;1.30;;;;;;;15.32;83.28;96105.25;5066946;28;20268;-83
2022/06/10 00:03:31;;;;;;;2.58;1.58;;;;;;;15.32;82.94;96110.44;5064356;28;20221;-82
2022/06/10 00:06:00;;;;;;;2.85;1.40;;;;;;;15.33;82.57;96109.47;5078714;28;20204;-82
2022/06/10 00:08:29;;;;;;;2.05;1.50;;;;;;;15.35;82.71;96110.06;5077376;28;20225;-82
2022/06/10 00:10:56;;;;;;;2.33;1.48;;;;;;;15.40;83.04;96107.66;5078384;28;20197;-82
2022/06/10 00:13:27;;;;;;;3.97;1.80;;;;;;;15.45;82.77;96113.09;5071344;28;20228;-82
2022/06/10 00:15:55;;;;;;;1.90;1.75;;;;;;;15.36;82.40;96113.47;5062605;28;20201;-82
2022/06/10 00:18:23;;;;;;;13.80;11.82;;;;;;;15.37;82.80;96113.28;5077563;28;20224;-82
2022/06/10 00:20:51;;;;;;;2.30;2.10;;;;;;;15.33;82.44;96114.66;5077179;28;20267;-79
2022/06/10 00:23:18;;;;;;;2.35;1.45;;;;;;;15.34;82.68;96112.84;5062880;28;20233;-81
2022/06/10 00:25:46;;;;;;;2.15;1.50;;;;;;;15.33;82.08;96111.25;5074530;28;20218;-81
2022/06/10 00:28:13;;;;;;;2.80;1.60;;;;;;;15.33;81.46;96104.25;5083671;28;20255;-82
2022/06/10 00:30:40;;;;;;;4.43;1.63;;;;;;;15.37;81.88;96108.09;5081222;28;20223;-81
2022/06/10 00:33:07;;;;;;;1.60;1.50;;;;;;;15.32;82.09;96107.84;5082990;28;20236;-82
2022/06/10 00:35:34;;;;;;;2.28;1.70;;;;;;;15.31;82.09;96105.44;5081828;28;20203;-81
2022/06/10 00:38:03;;;;;;;3.58;1.67;;;;;;;15.30;82.38;96116.81;5081425;28;20205;-81
2022/06/10 00:40:32;;;;;;;1.42;1.30;;;;;;;15.31;81.84;96113.22;5062562;28;20217;-82
2022/06/10 00:42:59;;;;;;;2.45;1.60;;;;;;;15.27;81.70;96119.78;5061479;28;20371;-80
2022/06/10 00:46:00;;;;;;;2.45;1.50;;;;;;;15.25;81.04;96125.16;5072776;28;20209;-81
2022/06/10 00:48:36;;;;;;;2.42;1.48;;;;;;;15.29;81.76;96120.41;5061071;28;20247;-81
2022/06/10 00:51:11;;;;;;;3.38;1.60;;;;;;;15.13;81.05;96117.13;5082766;28;20224;-82
2022/06/10 00:53:39;;;;;;;3.42;1.60;;;;;;;15.12;81.99;96125.91;5081113;28;20254;-81
2022/06/10 00:56:10;;;;;;;1.88;1.50;;;;;;;15.09;81.42;96123.69;5069239;28;20197;-81
2022/06/10 00:58:43;;;;;;;2.50;1.70;;;;;;;15.12;81.67;96119.91;5062471;28;20229;-81
2022/06/10 01:01:11;;;;;;;2.25;1.30;;;;;;;15.12;81.25;96114.72;5073910;28;20275;-82
2022/06/10 01:03:38;;;;;;;1.42;1.30;;;;;;;15.11;80.85;96108.75;5081915;28;20294;-81
2022/06/10 01:06:05;;;;;;;2.88;1.40;;;;;;;15.00;80.51;96113.69;5068938;28;20208;-82
2022/06/10 01:08:31;;;;;;;3.08;1.50;;;;;;;15.03;80.73;96108.09;5061840;28;20225;-80
2022/06/10 01:11:18;;;;;;;2.80;1.42;;;;;;;15.05;80.96;96111.28;5072026;28;20198;-82
2022/06/10 01:13:53;;;;;;;2.40;1.60;;;;;;;15.10;80.52;96111.53;5080690;28;20740;-81
2022/06/10 01:16:30;;;;;;;2.83;1.58;;;;;;;15.10;80.48;96114.13;5066314;28;20276;-81
2022/06/10 01:19:05;;;;;;;2.42;1.50;;;;;;;15.15;80.35;96119.53;5081030;28;20220;-81
2022/06/10 01:21:50;;;;;;;1.63;1.40;;;;;;;15.08;80.62;96122.09;5065333;28;20213;-81
2022/06/10 01:24:47;;;;;;;1.88;1.50;;;;;;;15.09;80.63;96122.91;5072949;28;20707;-82
2022/06/10 01:27:48;;;;;;;2.28;1.40;;;;;;;15.01;80.65;96123.84;5082670;28;20274;-81
2022/06/10 01:30:20;;;;;;;2.70;1.88;;;;;;;15.07;81.05;96125.69;5064016;28;20197;-81
2022/06/10 01:32:57;;;;;;;3.90;1.70;;;;;;;15.11;80.10;96133.88;5079580;28;20240;-81
2022/06/10 01:35:34;;;;;;;1.60;1.30;;;;;;;15.05;79.42;96121.66;5068769;28;20188;-80
2022/06/10 01:38:08;;;;;;;1.55;1.33;;;;;;;15.07;79.52;96127.47;5079401;28;20223;-81
2022/06/10 01:40:41;;;;;;;2.65;1.60;;;;;;;15.06;79.57;96126.66;5060858;28;20223;-81
2022/06/10 01:43:16;;;;;;;4.43;1.48;;;;;;;15.07;79.40;96124.88;5062917;28;20619;-81
2022/06/10 01:45:50;;;;;;;1.60;1.50;;;;;;;15.07;79.83;96123.09;5060896;28;20718;-81
2022/06/10 01:48:23;;;;;;;2.58;1.50;;;;;;;15.07;79.71;96122.28;5079908;28;20220;-81
2022/06/10 01:50:55;;;;;;;2.33;1.30;;;;;;;15.03;79.51;96134.81;5081739;28;20230;-81
2022/06/10 01:53:28;;;;;;;3.05;1.60;;;;;;;15.04;80.00;96135.63;5067500;28;20240;-81
2022/06/10 01:56:02;;;;;;;3.45;1.80;;;;;;;15.06;79.55;96137.03;5081705;28;20196;-80
2022/06/10 01:58:34;;;;;;;2.05;1.50;;;;;;;15.07;79.54;96146.44;5079684;28;20223;-80
2022/06/10 02:01:09;;;;;;;3.95;1.50;;;;;;;15.10;79.30;96146.03;5070896;28;20585;-81
2022/06/10 02:03:40;;;;;;;1.63;1.45;;;;;;;15.12;78.94;96148.44;5060246;28;20248;-81
2022/06/10 02:06:13;;;;;;;2.70;1.50;;;;;;;15.11;79.17;96149.44;5070390;28;20258;-81
2022/06/10 02:08:43;;;;;;;1.98;1.60;;;;;;;15.09;79.40;96154.00;5072316;28;20210;-81
2022/06/10 02:11:13;;;;;;;1.80;1.27;;;;;;;15.09;79.51;96156.59;5070730;28;20603;-80
2022/06/10 02:13:44;;;;;;;2.55;1.73;;;;;;;15.09;79.50;96161.78;5065292;28;20300;-81
2022/06/10 02:16:15;;;;;;;1.40;1.30;;;;;;;15.12;78.75;96162.22;5059644;28;20202;-80
2022/06/10 02:18:48;;;;;;;3.13;1.35;;;;;;;15.18;79.24;96163.25;5075591;28;20236;-82
2022/06/10 02:21:19;;;;;;;3.60;1.40;;;;;;;15.14;78.73;96162.03;5083653;28;20249;-81
2022/06/10 02:23:51;;;;;;;2.13;1.70;;;;;;;15.15;78.80;96166.25;5081037;28;20224;-81
2022/06/10 02:26:18;;;;;;;2.20;1.35;;;;;;;15.13;78.81;96170.81;5083451;28;20197;-81
2022/06/10 02:28:52;;;;;;;1.67;1.55;;;;;;;15.08;78.85;96170.56;5063887;28;20299;-81
2022/06/10 02:31:22;;;;;;;3.20;1.58;;;;;;;15.07;79.63;96174.16;5075229;28;20216;-81
2022/06/10 02:33:50;;;;;;;1.63;1.40;;;;;;;15.07;79.26;96176.75;5076164;28;20221;-81
2022/06/10 02:36:21;;;;;;;2.45;1.50;;;;;;;15.08;79.18;96175.75;5063457;28;20259;-81
2022/06/10 02:38:56;;;;;;;10.27;1.60;;;;;;;15.11;78.91;96176.19;5081388;28;20760;-81
2022/06/10 02:41:30;;;;;;;4.53;1.70;;;;;;;15.09;78.99;96183.34;5080369;28;20212;-81
2022/06/10 02:44:15;;;;;;;2.10;1.42;;;;;;;15.07;79.92;96184.53;5081155;28;20245;-81
2022/06/10 02:46:51;;;;;;;2.00;1.50;;;;;;;15.04;79.54;96185.69;5078763;28;20227;-81
2022/06/10 02:49:20;;;;;;;1.80;1.48;;;;;;;15.06;79.68;96185.50;5081236;28;20224;-81
2022/06/10 02:51:48;;;;;;;2.45;1.70;;;;;;;15.04;78.83;96187.50;5062500;28;20193;-81
2022/06/10 02:54:19;;;;;;;1.48;1.38;;;;;;;15.07;79.27;96189.72;5062778;28;20205;-81
2022/06/10 02:56:46;;;;;;;2.67;1.40;;;;;;;15.10;79.32;96189.34;5063644;28;20260;-81
2022/06/10 03:02:24;;;;;;;2.15;1.42;;;;;;;15.01;79.21;96193.84;5062067;28;20236;-80
2022/06/10 03:05:10;;;;;;;1.73;1.30;;;;;;;15.02;78.81;96203.25;5065590;28;20189;-81
2022/06/10 03:07:47;;;;;;;2.83;1.60;;;;;;;14.99;78.77;96203.63;5082018;28;20212;-82
2022/06/10 03:10:22;;;;;;;1.67;1.50;;;;;;;14.95;78.74;96207.59;5075485;28;20283;-81
2022/06/10 03:13:01;;;;;;;2.63;1.42;;;;;;;14.93;78.64;96201.00;5063164;28;20255;-80
2022/06/10 03:15:45;;;;;;;2.95;1.60;;;;;;;14.94;79.00;96213.78;5070221;28;20197;-82
2022/06/10 03:18:19;;;;;;;1.85;1.50;;;;;;;14.95;78.66;96215.38;5066434;28;20280;-81
2022/06/10 03:20:58;;;;;;;3.38;1.48;;;;;;;14.97;78.48;96217.78;5071842;28;20205;-80
2022/06/10 03:23:39;;;;;;;4.53;1.60;;;;;;;14.93;79.58;96219.94;5081461;28;20228;-81
2022/06/10 03:26:14;;;;;;;1.70;1.20;;;;;;;14.95;78.63;96217.97;5068351;28;20197;-81
2022/06/10 03:28:47;;;;;;;2.53;1.42;;;;;;;14.92;78.42;96225.31;5066978;28;20212;-81
2022/06/10 03:31:17;;;;;;;4.38;1.40;;;;;;;14.91;79.05;96224.50;5080536;28;20200;-81
2022/06/10 03:33:48;;;;;;;3.13;1.45;;;;;;;14.91;79.03;96234.88;5079088;28;20239;-81
2022/06/10 03:36:20;;;;;;;2.25;1.85;;;;;;;14.92;79.64;96238.28;5079807;28;20520;-80
2022/06/10 03:38:50;;;;;;;2.55;1.63;;;;;;;14.88;79.83;96235.25;5069070;28;20666;-81
2022/06/10 03:41:21;;;;;;;1.65;1.40;;;;;;;14.90;80.13;96235.06;5073368;28;20266;-81
2022/06/10 03:43:49;;;;;;;2.53;1.45;;;;;;;14.91;80.01;96237.47;5068039;28;20336;-81
2022/06/10 03:46:17;;;;;;;1.95;1.50;;;;;;;14.87;79.32;96246.59;5074228;28;20193;-80
2022/06/10 03:48:46;;;;;;;1.73;1.63;;;;;;;14.88;79.20;96234.44;5070130;28;20217;-81
2022/06/10 03:51:14;;;;;;;2.75;1.50;;;;;;;14.92;79.21;96236.50;5061954;28;20198;-81
2022/06/10 03:53:42;;;;;;;2.72;1.42;;;;;;;14.97;78.75;96238.53;5080608;28;20786;-81
2022/06/10 03:56:10;;;;;;;2.65;1.58;;;;;;;14.89;78.73;96236.84;5069528;28;20569;-81
2022/06/10 03:58:37;;;;;;;1.48;1.27;;;;;;;14.91;79.42;96245.25;5062549;28;20720;-81
2022/06/10 04:01:04;;;;;;;3.42;1.65;;;;;;;14.93;79.04;96242.47;5062778;28;20271;-81
2022/06/10 04:03:30;;;;;;;2.80;1.52;;;;;;;14.95;78.91;96248.28;5068283;28;20229;-82
2022/06/10 04:05:57;;;;;;;1.73;1.60;;;;;;;14.90;79.87;96255.81;5070683;28;20265;-80
2022/06/10 04:08:23;;;;;;;3.47;1.92;;;;;;;14.95;78.89;96246.50;5072182;28;20271;-82
2022/06/10 04:10:52;;;;;;;2.63;1.58;;;;;;;14.99;77.97;96258.09;5072730;28;20197;-81
2022/06/10 04:13:20;;;;;;;2.63;1.80;;;;;;;15.02;78.34;96256.91;5060654;28;20255;-80
2022/06/10 04:15:46;;;;;;;2.45;1.67;;;;;;;15.01;78.54;96260.50;5064391;28;20200;-81
2022/06/10 04:18:13;;;;;;;2.42;1.70;;;;;;;14.99;79.68;96265.06;5078026;28;20246;-80
2022/06/10 04:20:41;;;;;;;2.35;1.48;;;;;;;15.01;78.98;96261.28;5069381;28;20466;-82
2022/06/10 04:23:08;;;;;;;2.15;1.30;;;;;;;14.96;78.53;96271.44;5061598;28;20237;-81
2022/06/10 04:25:37;;;;;;;4.05;1.65;;;;;;;14.98;78.90;96263.47;5080814;28;20196;-81
2022/06/10 04:28:06;;;;;;;1.50;1.40;;;;;;;15.02;78.56;96269.88;5078872;28;20209;-80
2022/06/10 04:30:35;;;;;;;2.22;1.40;;;;;;;15.01;78.87;96273.47;5080206;28;20204;-82
2022/06/10 04:33:02;;;;;;;3.47;1.55;;;;;;;15.00;79.32;96272.69;5080028;28;20236;-80
2022/06/10 04:35:29;;;;;;;2.08;1.60;;;;;;;15.06;78.69;96271.09;5080283;28;20227;-82
2022/06/10 04:37:57;;;;;;;2.50;1.40;;;;;;;15.04;78.89;96267.91;5065976;28;20197;-80
2022/06/10 04:40:26;;;;;;;3.08;1.60;;;;;;;15.08;78.93;96269.94;5060573;28;20256;-81
2022/06/10 04:42:54;;;;;;;2.95;1.73;;;;;;;15.09;78.55;96270.72;5060473;28;20409;-80
2022/06/10 04:45:24;;;;;;;2.13;1.60;;;;;;;15.12;78.63;96270.38;5071504;28;20208;-80
2022/06/10 04:47:54;;;;;;;2.53;1.33;;;;;;;15.17;78.21;96275.81;5059942;28;20222;-81
2022/06/10 04:50:23;;;;;;;1.50;1.40;;;;;;;15.14;79.00;96281.34;5068971;28;20263;-81
2022/06/10 04:52:49;;;;;;;3.92;1.60;;;;;;;15.15;78.65;96275.19;5071467;28;20267;-81
2022/06/10 04:55:15;;;;;;;2.30;1.55;;;;;;;15.15;78.90;96278.59;5065501;28;20280;-80
2022/06/10 04:57:42;;;;;;;2.05;1.40;;;;;;;15.16;78.26;96277.59;5063988;28;20198;-81
2022/06/10 05:00:18;;;;;;;4.55;2.67;;;;;;;15.23;79.31;96279.41;5065990;28;20232;-81
2022/06/10 05:02:46;;;;;;;1.42;1.33;;;;;;;15.21;77.83;96280.41;5059605;28;20233;-81
2022/06/10 05:05:13;;;;;;;5.13;1.88;;;;;;;15.23;77.71;96274.22;5060908;28;20220;-81
2022/06/10 05:07:40;;;;;;;1.65;1.48;;;;;;;15.32;77.59;96273.91;5059944;28;20201;-81
2022/06/10 05:10:10;;;;;;;2.33;1.70;;;;;;;15.38;77.61;96283.53;5059062;28;20636;-81
2022/06/10 05:12:36;;;;;;;2.08;1.42;;;;;;;15.41;77.65;96282.34;5057073;28;20235;-81
2022/06/10 05:15:03;;;;;;;4.85;1.90;;;;;;;15.46;77.86;96287.78;5057446;28;20197;-81
2022/06/10 05:17:30;;;;;;;3.42;1.80;;;;;;;15.50;77.78;96292.41;5059384;28;20208;-81
2022/06/10 05:19:58;;;;;;;2.15;1.63;;;;;;;15.53;77.10;96291.22;5058903;28;20217;-80
2022/06/10 05:22:24;;;;;;;3.58;1.50;;;;;;;15.52;76.95;96293.03;5057706;28;20762;-81
2022/06/10 05:24:50;;;;;;;4.20;2.33;;;;;;;15.57;76.78;96294.28;5058453;28;20251;-81
2022/06/10 05:27:17;;;;;;;3.67;1.75;;;;;;;15.64;77.12;96301.09;5058527;28;20205;-81
2022/06/10 05:29:43;;;;;;;2.28;1.50;;;;;;;15.63;76.89;96302.09;5058145;28;20244;-82
2022/06/10 05:32:10;;;;;;;2.90;1.70;;;;;;;15.73;76.66;96297.38;5054613;28;20237;-82
2022/06/10 05:34:46;;;;;;;3.58;1.80;;;;;;;15.88;76.67;96297.25;5051844;28;20200;-82
2022/06/10 05:37:16;;;;;;;3.70;2.03;;;;;;;15.95;77.39;96298.09;5052338;28;20205;-82
2022/06/10 05:39:45;;;;;;;2.13;1.70;;;;;;;16.08;75.37;96299.94;5051433;28;20251;-82
2022/06/10 05:42:13;;;;;;;2.95;1.88;;;;;;;16.08;74.98;96305.16;5051422;28;20320;-82
2022/06/10 05:44:41;;;;;;;4.72;2.15;;;;;;;16.19;75.40;96305.38;5053361;28;20201;-82
2022/06/10 05:47:10;;;;;;;4.22;2.22;;;;;;;16.26;73.99;96305.41;5072676;28;20250;-82
2022/06/10 05:49:38;;;;;;;6.35;3.22;;;;;;;16.31;74.13;96304.84;5071659;28;20225;-82
2022/06/10 05:52:06;;;;;;;3.67;2.42;;;;;;;16.32;73.58;96304.66;5074473;28;20228;-82
2022/06/10 05:54:34;;;;;;;2.83;1.90;;;;;;;16.40;73.35;96303.66;5075829;28;20200;-83
2022/06/10 05:57:01;;;;;;;4.38;1.80;;;;;;;16.44;72.49;96308.28;5075775;28;20616;-82
2022/06/10 05:59:29;;;;;;;1.80;1.60;;;;;;;16.40;73.25;96314.88;5075824;28;20645;-82
2022/06/10 06:01:55;;;;;;;2.97;1.70;;;;;;;16.41;73.14;96310.47;5074077;28;20220;-82
2022/06/10 06:04:22;;;;;;;2.97;2.00;;;;;;;16.39;73.33;96317.66;5075502;28;20250;-82
2022/06/10 06:06:48;;;;;;;1.92;1.70;;;;;;;16.23;73.16;96311.81;5076082;28;20205;-82
2022/06/10 06:09:15;;;;;;;2.05;1.60;;;;;;;16.20;73.08;96298.38;5074728;28;20673;-82
2022/06/10 06:11:43;;;;;;;2.83;1.83;;;;;;;16.28;73.72;96306.03;5074861;28;20303;-82
2022/06/10 06:14:09;;;;;;;2.13;1.70;;;;;;;16.38;73.81;96305.66;5074582;28;20232;-82
2022/06/10 06:16:36;;;;;;;5.00;1.40;;;;;;;16.46;73.87;96313.28;5074537;28;20209;-82
2022/06/10 06:19:03;;;;;;;2.30;1.70;;;;;;;16.50;73.41;96314.50;5075329;28;20221;-82
2022/06/10 06:21:31;;;;;;;5.72;2.17;;;;;;;16.43;73.10;96316.28;5075373;28;20354;-82
2022/06/10 06:23:57;;;;;;;2.50;1.73;;;;;;;16.47;72.83;96318.31;5074714;28;20794;-82
2022/06/10 06:26:24;;;;;;;3.22;1.83;;;;;;;16.42;72.25;96320.69;5075932;28;20201;-82
2022/06/10 06:28:52;;;;;;;2.38;1.60;;;;;;;16.48;72.83;96321.69;5074830;28;20217;-82
2022/06/10 06:31:18;;;;;;;2.42;1.90;;;;;;;16.53;72.77;96327.13;5075500;28;20204;-83
2022/06/10 06:33:44;;;;;;;2.97;1.70;;;;;;;16.65;72.37;96325.59;5074726;28;20232;-82
2022/06/10 06:36:18;;;;;;;8.70;6.65;;;;;;;16.77;72.07;96320.59;5075512;28;20299;-82
2022/06/10 06:38:44;;;;;;;17.20;13.77;;;;;;;16.90;71.64;96320.66;5075420;28;20228;-83
2022/06/10 06:41:11;;;;;;;6.53;5.93;;;;;;;17.06;71.80;96324.66;5075469;28;20258;-83
2022/06/10 06:43:37;;;;;;;5.88;2.50;;;;;;;17.15;72.06;96326.88;5074949;28;20252;-83
2022/06/10 06:46:05;;;;;;;4.05;2.17;;;;;;;17.19;71.67;96333.28;5075219;28;20204;-82
2022/06/10 06:48:31;;;;;;;5.28;2.20;;;;;;;17.19;71.72;96330.69;5074996;28;20250;-82
2022/06/10 06:50:58;;;;;;;1.88;1.65;;;;;;;17.06;72.16;96335.88;5074825;28;20204;-82
2022/06/10 06:53:24;;;;;;;4.78;1.88;;;;;;;17.15;71.90;96333.88;5074110;28;20282;-82
2022/06/10 06:55:52;;;;;;;3.85;2.05;;;;;;;17.21;71.35;96340.88;5074548;28;20628;-82
2022/06/10 06:58:19;;;;;;;4.15;2.00;;;;;;;17.28;70.93;96344.31;5074010;28;20256;-82
2022/06/10 07:00:45;;;;;;;4.40;2.00;;;;;;;17.33;71.01;96341.88;5073797;28;20193;-82
2022/06/10 07:03:13;;;;;;;3.72;2.20;;;;;;;17.35;70.87;96339.88;5073393;28;20237;-82
2022/06/10 07:05:40;;;;;;;2.15;1.90;;;;;;;17.32;72.32;96344.72;5074949;28;20204;-83
2022/06/10 07:08:06;;;;;;;5.60;2.40;;;;;;;17.37;71.49;96339.69;5074365;28;20258;-83
2022/06/10 07:10:34;;;;;;;3.55;2.40;;;;;;;17.50;71.15;96348.31;5073930;28;20205;-83
2022/06/10 07:13:01;;;;;;;5.85;2.30;;;;;;;17.60;70.77;96343.50;5073446;28;20320;-83
2022/06/10 07:15:27;;;;;;;3.60;2.38;;;;;;;17.67;70.18;96338.31;5074086;28;20618;-82
2022/06/10 07:17:54;;;;;;;7.88;6.85;;;;;;;17.80;69.69;96347.91;5073969;28;20250;-82
2022/06/10 07:20:25;;;;;;;12.82;10.77;;;;;;;17.88;68.80;96342.50;5073133;28;20200;-82
2022/06/10 07:22:51;;;;;;;5.18;3.35;;;;;;;17.88;68.52;96347.72;5072684;28;20299;-82
2022/06/10 07:25:19;;;;;;;5.40;2.50;;;;;;;17.78;68.82;96350.72;5073665;28;20204;-83
2022/06/10 07:27:45;;;;;;;3.53;2.50;;;;;;;17.91;68.09;96350.69;5073734;28;20209;-82
2022/06/10 07:30:14;;;;;;;6.10;2.60;;;;;;;17.91;67.37;96342.88;5072923;28;20220;-82
2022/06/10 07:32:41;;;;;;;4.43;2.22;;;;;;;18.04;67.43;96342.06;5072632;28;20304;-82
2022/06/10 07:35:09;;;;;;;3.17;2.28;;;;;;;18.10;70.59;96340.44;5073226;28;20201;-82
2022/06/10 07:37:36;;;;;;;4.22;2.42;;;;;;;18.12;68.08;96341.81;5073426;28;20274;-83
2022/06/10 07:40:04;;;;;;;3.42;2.55;;;;;;;18.24;66.35;96339.41;5072800;28;20221;-82
2022/06/10 07:42:29;;;;;;;3.75;2.50;;;;;;;18.30;67.23;96347.19;5074539;28;20236;-83
2022/06/10 07:44:56;;;;;;;4.32;2.53;;;;;;;18.41;67.40;96342.34;5076861;28;20664;-83
2022/06/10 07:47:23;;;;;;;5.07;2.50;;;;;;;18.50;67.56;96336.69;5072922;28;20208;-83
2022/06/10 07:49:50;;;;;;;3.67;2.70;;;;;;;18.53;67.89;96344.09;5073280;28;20231;-83
2022/06/10 07:52:16;;;;;;;3.72;2.92;;;;;;;18.49;66.42;96344.72;5072790;28;20232;-82
2022/06/10 07:54:44;;;;;;;3.17;2.47;;;;;;;18.55;66.52;96342.09;5073168;28;20205;-82
2022/06/10 07:57:11;;;;;;;2.45;2.25;;;;;;;18.71;64.67;96342.63;5073170;28;20275;-82
2022/06/10 07:59:40;;;;;;;4.18;2.67;;;;;;;18.75;65.06;96344.63;5072950;28;20231;-82
2022/06/10 08:02:06;;;;;;;3.42;2.47;;;;;;;18.81;65.03;96343.00;5072361;28;20303;-82
2022/06/10 08:04:33;;;;;;;7.20;3.00;;;;;;;18.87;65.04;96344.75;5072869;28;20204;-82
2022/06/10 08:07:00;;;;;;;5.28;2.55;;;;;;;18.91;64.50;96341.53;5073145;28;20803;-83
2022/06/10 08:09:26;;;;;;;3.15;2.50;;;;;;;19.04;64.70;96356.31;5073194;28;20224;-82
2022/06/10 08:11:54;;;;;;;4.30;2.40;;;;;;;19.11;62.63;96357.06;5071880;28;20200;-83
2022/06/10 08:14:21;;;;;;;3.20;2.72;;;;;;;19.00;63.30;96352.53;5072278;28;20749;-82
2022/06/10 08:16:47;;;;;;;4.32;2.58;;;;;;;19.04;63.82;96353.72;5073697;28;20208;-83
2022/06/10 08:19:14;;;;;;;5.35;3.00;;;;;;;19.09;63.86;96356.47;5072895;28;20224;-83
2022/06/10 08:24:24;;;;;;;4.10;2.72;;;;;;;19.39;61.23;96350.66;5072004;28;20293;-83
2022/06/10 08:26:51;;;;;;;3.70;2.95;;;;;;;19.44;61.15;96348.19;5073133;28;20205;-82
2022/06/10 08:29:20;;;;;;;4.45;3.22;;;;;;;19.36;60.80;96348.47;5071847;28;20227;-83
2022/06/10 08:31:46;;;;;;;3.78;2.78;;;;;;;19.26;61.19;96343.69;5071687;28;20197;-82
2022/06/10 08:34:13;;;;;;;3.85;2.78;;;;;;;19.32;62.13;96345.47;5072184;28;20749;-83
2022/06/10 08:36:41;;;;;;;4.30;2.92;;;;;;;19.21;61.69;96346.97;5072521;28;20215;-83
2022/06/10 08:39:08;;;;;;;3.45;3.05;;;;;;;18.86;61.97;96346.56;5072347;28;20221;-83
2022/06/10 08:41:50;;;;;;;4.13;3.72;;;;;;;19.14;61.76;96348.81;5071698;28;20200;-83
2022/06/10 08:44:31;;;;;;;5.28;3.38;;;;;;;19.29;61.04;96351.91;5072142;28;20282;-82
2022/06/10 08:47:19;;;;;;;4.32;3.50;;;;;;;19.47;60.13;96348.56;5072066;28;20205;-83
2022/06/10 08:50:00;;;;;;;4.85;3.30;;;;;;;19.63;58.97;96355.88;5072085;28;20221;-83
2022/06/10 08:52:36;;;;;;;3.70;3.40;;;;;;;19.79;58.92;96348.53;5071517;28;20617;-82
2022/06/10 08:55:15;;;;;;;3.50;3.20;;;;;;;19.93;58.28;96348.19;5072153;28;20198;-82
2022/06/10 08:57:44;;;;;;;3.20;2.85;;;;;;;20.18;57.40;96348.16;5071766;28;20200;-83
2022/06/10 09:00:18;;;;;;;4.40;2.80;;;;;;;20.49;56.80;96341.19;5071609;28;20637;-83
2022/06/10 09:02:50;;;;;;;4.40;2.90;;;;;;;20.30;57.18;96350.81;5072905;28;20313;-83
2022/06/10 09:05:24;;;;;;;4.13;2.80;;;;;;;20.01;59.43;96347.91;5072840;28;20611;-82
2022/06/10 09:07:53;;;;;;;3.40;3.05;;;;;;;19.90;59.46;96350.44;5073417;28;20205;-83
2022/06/10 09:10:25;;;;;;;4.45;2.97;;;;;;;19.86;60.08;96354.50;5073282;28;20754;-83
2022/06/10 09:13:21;;;;;;;12.88;11.57;;;;;;;19.79;60.77;96356.38;5072332;28;20231;-83
2022/06/10 09:15:54;;;;;;;15.98;12.35;;;;;;;19.64;61.25;96357.50;5072725;28;20197;-83
2022/06/10 09:18:26;;;;;;;6.50;5.28;;;;;;;19.60;61.44;96366.00;5072834;28;20243;-83
2022/06/10 09:21:00;;;;;;;4.68;3.60;;;;;;;19.39;61.73;96361.09;5072906;28;20201;-83
2022/06/10 09:23:33;;;;;;;6.15;3.53;;;;;;;19.21;61.36;96367.84;5072636;28;20233;-83
2022/06/10 09:26:07;;;;;;;5.18;3.95;;;;;;;19.13;61.66;96364.69;5072776;28;20216;-83
2022/06/10 09:28:34;;;;;;;4.88;3.33;;;;;;;19.19;61.48;96366.47;5072260;28;20216;-83
2022/06/10 09:31:06;;;;;;;4.78;3.38;;;;;;;19.29;61.69;96358.94;5071995;28;20196;-82
2022/06/10 09:33:41;;;;;;;5.07;3.20;;;;;;;19.38;62.28;96359.50;5072290;28;20230;-83
2022/06/10 09:36:15;;;;;;;4.22;3.30;;;;;;;19.29;61.46;96359.75;5072355;28;20262;-82
2022/06/10 09:38:49;;;;;;;3.72;3.10;;;;;;;19.40;62.28;96358.28;5072538;28;20274;-82
2022/06/10 09:41:29;;;;;;;6.25;3.45;;;;;;;19.29;62.51;96370.19;5072560;28;20671;-82
2022/06/10 09:44:09;;;;;;;3.58;3.17;;;;;;;19.50;61.60;96361.25;5071762;28;20634;-83
2022/06/10 09:46:51;;;;;;;3.30;2.85;;;;;;;20.11;58.84;96362.31;5072534;28;20204;-83
2022/06/10 09:49:34;;;;;;;4.38;3.20;;;;;;;20.51;57.42;96357.47;5072200;28;20636;-82
2022/06/10 09:52:10;;;;;;;3.55;2.85;;;;;;;20.54;56.59;96354.41;5071359;28;20619;-82
2022/06/10 09:54:50;;;;;;;5.80;3.53;;;;;;;20.79;54.34;96352.47;5072436;28;20200;-82
2022/06/10 09:57:41;;;;;;;7.53;6.82;;;;;;;21.14;54.48;96351.81;5072164;28;20197;-82
2022/06/10 10:00:15;;;;;;;15.75;14.10;;;;;;;21.47;53.74;96354.75;5071610;28;20228;-82
2022/06/10 10:02:59;;;;;;;6.53;5.00;;;;;;;21.67;53.72;96349.97;5071312;28;20231;-82
2022/06/10 10:05:42;;;;;;;3.90;3.30;;;;;;;21.78;52.58;96345.75;5072203;28;20575;-83
2022/06/10 10:08:18;;;;;;;3.60;3.10;;;;;;;21.77;51.08;96341.53;5072031;28;20639;-85
2022/06/10 10:10:49;;;;;;;5.80;2.85;;;;;;;22.02;51.77;96342.13;5072067;28;20265;-83
2022/06/10 10:13:31;;;;;;;4.35;2.90;;;;;;;22.25;50.68;96333.44;5071507;28;20229;-83
2022/06/10 10:16:07;;;;;;;3.53;2.95;;;;;;;21.85;52.04;96343.81;5071885;28;20201;-83
2022/06/10 10:18:46;;;;;;;4.70;3.20;;;;;;;21.42;54.11;96343.34;5071088;28;20221;-84
2022/06/10 10:21:15;;;;;;;4.22;3.17;;;;;;;21.07;55.39;96336.19;5070345;28;20204;-83
2022/06/10 10:23:46;;;;;;;3.95;3.25;;;;;;;20.99;55.91;96339.09;5070326;28;20445;-83
2022/06/10 10:26:21;;;;;;;4.82;3.05;;;;;;;21.05;55.46;96340.84;5070850;28;20359;-83
2022/06/10 10:28:50;;;;;;;3.80;3.20;;;;;;;20.85;55.95;96338.50;5070826;28;20255;-83
2022/06/10 10:31:21;;;;;;;3.95;2.80;;;;;;;20.72;53.88;96337.88;5070473;28;20696;-83
2022/06/10 10:33:50;;;;;;;4.43;2.80;;;;;;;20.59;54.35;96339.63;5070119;28;20592;-83
2022/06/10 10:36:31;;;;;;;5.72;3.03;;;;;;;20.46;55.08;96337.19;5060698;28;20232;-84
2022/06/10 10:38:59;;;;;;;5.82;2.88;;;;;;;20.64;54.38;96339.78;5052539;28;20308;-83
2022/06/10 10:41:35;;;;;;;3.33;2.85;;;;;;;21.32;54.93;96338.66;5054379;28;20266;-83
2022/06/10 10:44:06;;;;;;;3.42;2.45;;;;;;;21.72;53.27;96336.19;5053916;28;20294;-83
2022/06/10 10:46:42;;;;;;;4.03;2.35;;;;;;;21.99;50.82;96334.69;5054177;28;20200;-83
2022/06/10 10:49:29;;;;;;;2.92;2.70;;;;;;;22.48;49.30;96329.16;5054342;28;20319;-83
2022/06/10 10:51:57;;;;;;;4.13;2.47;;;;;;;22.12;48.90;96332.91;5056231;28;20205;-84
2022/06/10 10:54:27;;;;;;;3.25;2.53;;;;;;;21.64;47.75;96324.22;5073923;28;20572;-83
2022/06/10 10:56:54;;;;;;;2.90;2.47;;;;;;;21.36;51.69;96329.31;5074870;28;20633;-83
2022/06/10 10:59:29;;;;;;;2.50;2.30;;;;;;;21.18;51.56;96332.78;5074657;28;20225;-83
2022/06/10 11:01:55;;;;;;;3.30;2.47;;;;;;;21.04;53.34;96331.38;5073177;28;20262;-83
2022/06/10 11:04:30;;;;;;;22.65;20.35;;;;;;;20.95;53.57;96337.97;5074141;28;20221;-83
2022/06/10 11:07:02;;;;;;;11.57;6.53;;;;;;;20.80;53.13;96342.78;5074615;28;20200;-83
2022/06/10 11:09:29;;;;;;;5.07;4.57;;;;;;;20.62;54.09;96335.78;5074236;28;20227;-83
2022/06/10 11:11:58;;;;;;;3.88;3.47;;;;;;;20.58;55.56;96326.78;5073922;28;20200;-83
2022/06/10 11:14:28;;;;;;;4.60;4.20;;;;;;;20.48;55.01;96332.53;5073711;28;20212;-83
2022/06/10 11:17:09;;;;;;;3.35;2.92;;;;;;;20.31;55.42;96331.50;5054022;28;20205;-83
2022/06/10 11:19:44;;;;;;;4.10;2.80;;;;;;;20.32;55.44;96333.09;5053870;28;20688;-83
2022/06/10 11:22:20;;;;;;;3.53;2.60;;;;;;;20.37;55.09;96329.88;5053426;28;20232;-83
2022/06/10 11:24:50;;;;;;;3.08;2.63;;;;;;;20.40;54.72;96332.81;5053451;28;20221;-83
2022/06/10 11:27:28;;;;;;;3.35;2.80;;;;;;;20.35;53.72;96322.22;5053858;28;20292;-83
2022/06/10 11:30:02;;;;;;;3.75;2.50;;;;;;;20.42;54.00;96322.94;5054520;28;20221;-83
2022/06/10 11:32:33;;;;;;;3.60;2.75;;;;;;;20.44;53.17;96320.91;5074084;28;20227;-83
2022/06/10 11:35:04;;;;;;;3.88;2.45;;;;;;;20.51;53.41;96312.97;5075094;28;20255;-83
2022/06/10 11:37:36;;;;;;;2.80;2.60;;;;;;;20.55;52.66;96319.38;5073285;28;20209;-83
2022/06/10 11:40:12;;;;;;;3.63;2.28;;;;;;;20.47;53.88;96319.66;5073549;28;20225;-83
2022/06/10 11:42:46;;;;;;;5.35;2.80;;;;;;;20.47;53.97;96311.81;5072583;28;20244;-83
2022/06/10 11:45:19;;;;;;;4.40;2.78;;;;;;;20.52;52.98;96312.75;5072728;28;20215;-83
2022/06/10 11:47:51;;;;;;;3.20;2.72;;;;;;;20.52;52.13;96314.59;5072025;28;20204;-83
2022/06/10 11:50:25;;;;;;;5.90;4.78;;;;;;;20.58;52.10;96311.09;5072793;28;20216;-83
2022/06/10 11:52:58;;;;;;;16.73;13.20;;;;;;;20.61;52.27;96306.19;5072348;28;20735;-83
2022/06/10 11:55:29;;;;;;;6.07;5.57;;;;;;;20.62;51.02;96307.00;5072620;28;20204;-84
2022/06/10 12:00:49;;;;;;;3.30;2.40;;;;;;;20.51;49.34;96295.47;5072731;28;20271;-82